Time;durP1;ratioP1;P1;durP2;ratioP2;P2;SDS_P1;SDS_P2;PMS_P1;PMS_P2;Temp;Humidity;BMP_temperature;BMP_pressure;BME280_temperature;BME280_humidity;BME280_pressure;Samples;Min_cycle;Max_cycle;Signal;HPM_P1;HPM_P2
2021/06/30 00:01:52;;;;;;;;;;;15.30;99.90;;;;;;5827220;22;19925;-82
2021/06/30 00:04:17;;;;;;;;;;;15.30;99.90;;;;;;5050624;28;19928;-82
2021/06/30 00:06:43;;;;;;;;;;;15.30;99.90;;;;;;5068888;28;19909;-82
2021/06/30 00:09:08;;;;;;;;;;;15.30;99.90;;;;;;5052859;28;19909;-82
2021/06/30 00:11:34;;;;;;;;;;;15.30;99.90;;;;;;5069152;28;19916;-82
2021/06/30 00:13:59;;;;;;;;;;;15.30;99.90;;;;;;5045857;28;19917;-82
2021/06/30 00:16:31;;;;;;;;;;;15.30;99.90;;;;;;5054204;28;19919;-82
2021/06/30 00:18:56;;;;;;;;;;;15.30;99.90;;;;;;5052494;28;19913;-82
2021/06/30 00:21:22;;;;;;;;;;;15.30;99.90;;;;;;5052651;28;19916;-82
2021/06/30 00:23:47;;;;;;;;;;;15.20;99.90;;;;;;5054083;28;19955;-82
2021/06/30 00:26:13;;;;;;;;;;;15.20;99.90;;;;;;5051353;28;19908;-82
2021/06/30 00:28:38;;;;;;;;;;;15.20;99.90;;;;;;5052516;28;19963;-82
2021/06/30 00:31:04;;;;;;;;;;;15.20;99.90;;;;;;5052094;28;19909;-82
2021/06/30 00:33:29;;;;;;;;;;;15.20;99.90;;;;;;5052104;28;19913;-82
2021/06/30 00:35:55;;;;;;;;;;;15.10;99.90;;;;;;5053841;28;19952;-82
2021/06/30 00:38:20;;;;;;;;;;;15.10;99.90;;;;;;5052552;28;19908;-82
2021/06/30 00:40:46;;;;;;;;;;;15.10;99.90;;;;;;5052236;28;19915;-82
2021/06/30 00:43:12;;;;;;;;;;;15.10;99.90;;;;;;5050657;28;19909;-82
2021/06/30 00:45:37;;;;;;;;;;;15.10;99.90;;;;;;5048486;28;20340;-82
2021/06/30 00:48:03;;;;;;;;;;;15.10;99.90;;;;;;5053419;28;19909;-82
2021/06/30 00:50:28;;;;;;;;;;;15.10;99.90;;;;;;5051905;28;19913;-81
2021/06/30 00:52:54;;;;;;;;;;;15.10;99.90;;;;;;5052174;28;19996;-82
2021/06/30 00:55:19;;;;;;;;;;;15.10;99.90;;;;;;5052046;28;19913;-82
2021/06/30 00:57:45;;;;;;;;;;;15.10;99.90;;;;;;5051964;28;19909;-82
2021/06/30 01:00:11;;;;;;;;;;;15.10;99.90;;;;;;5053212;28;20365;-82
2021/06/30 01:02:36;;;;;;;;;;;15.00;99.90;;;;;;5052154;28;19973;-82
2021/06/30 01:05:02;;;;;;;;;;;15.00;99.90;;;;;;5053250;28;19917;-81
2021/06/30 01:07:28;;;;;;;;;;;15.00;99.90;;;;;;5052102;28;20264;-82
2021/06/30 01:09:53;;;;;;;;;;;15.00;99.90;;;;;;5052100;28;19916;-81
2021/06/30 01:12:19;;;;;;;;;;;14.90;99.90;;;;;;5052189;28;20286;-82
2021/06/30 01:14:44;;;;;;;;;;;14.90;99.90;;;;;;5044936;28;20378;-82
2021/06/30 01:17:10;;;;;;;;;;;14.80;99.90;;;;;;5051877;28;19909;-82
2021/06/30 01:19:37;;;;;;;;;;;14.80;99.90;;;;;;5051761;28;19940;-82
2021/06/30 01:22:04;;;;;;;;;;;14.80;99.90;;;;;;5051378;28;19916;-83
2021/06/30 01:24:30;;;;;;;;;;;14.70;99.90;;;;;;5051686;28;20385;-82
2021/06/30 01:26:55;;;;;;;;;;;14.60;99.90;;;;;;5051508;28;19909;-83
2021/06/30 01:29:21;;;;;;;;;;;14.60;99.90;;;;;;5052617;28;20371;-83
2021/06/30 01:31:48;;;;;;;;;;;14.50;99.90;;;;;;5051118;28;19960;-83
2021/06/30 01:34:14;;;;;;;;;;;14.40;99.90;;;;;;5051166;28;19913;-83
2021/06/30 01:36:50;;;;;;;;;;;14.30;99.90;;;;;;5051108;28;19955;-82
2021/06/30 01:39:16;;;;;;;;;;;14.20;99.90;;;;;;5051392;28;20026;-83
2021/06/30 01:41:42;;;;;;;;;;;14.10;99.90;;;;;;5051134;28;20343;-83
2021/06/30 01:44:08;;;;;;;;;;;14.00;99.90;;;;;;5042724;28;19956;-83
2021/06/30 01:46:33;;;;;;;;;;;14.00;99.90;;;;;;5051241;28;19913;-82
2021/06/30 01:48:59;;;;;;;;;;;13.90;99.90;;;;;;5051124;28;20443;-83
2021/06/30 01:51:25;;;;;;;;;;;14.00;99.90;;;;;;5050954;28;19909;-83
2021/06/30 01:53:57;;;;;;;;;;;14.00;99.90;;;;;;5051047;28;19919;-82
2021/06/30 01:56:26;;;;;;;;;;;13.90;99.90;;;;;;5051160;28;19916;-83
2021/06/30 01:58:56;;;;;;;;;;;13.90;99.90;;;;;;5050843;28;20027;-83
2021/06/30 02:01:22;;;;;;;;;;;13.80;99.90;;;;;;5050803;28;19916;-83
2021/06/30 02:03:48;;;;;;;;;;;13.80;99.90;;;;;;5050813;28;19917;-83
2021/06/30 02:06:13;;;;;;;;;;;13.80;99.90;;;;;;5050928;28;19992;-83
2021/06/30 02:08:39;;;;;;;;;;;13.80;99.90;;;;;;5051011;28;20350;-83
2021/06/30 02:11:04;;;;;;;;;;;13.80;99.90;;;;;;5050514;28;20358;-83
2021/06/30 02:13:30;;;;;;;;;;;13.80;99.90;;;;;;5042463;28;19920;-83
2021/06/30 02:15:56;;;;;;;;;;;13.70;99.90;;;;;;5033379;28;19962;-83
2021/06/30 02:18:21;;;;;;;;;;;13.70;99.90;;;;;;5030933;28;19932;-83
2021/06/30 02:20:47;;;;;;;;;;;13.70;99.90;;;;;;5030509;28;20279;-82
2021/06/30 02:23:12;;;;;;;;;;;13.70;99.90;;;;;;5030948;28;19925;-82
2021/06/30 02:25:38;;;;;;;;;;;13.60;99.90;;;;;;5030744;28;19913;-83
2021/06/30 02:28:03;;;;;;;;;;;13.60;99.90;;;;;;5030800;28;19910;-83
2021/06/30 02:30:30;;;;;;;;;;;13.60;99.90;;;;;;5030468;28;19929;-83
2021/06/30 02:32:56;;;;;;;;;;;13.50;99.90;;;;;;5030826;28;19909;-83
2021/06/30 02:35:23;;;;;;;;;;;13.50;99.90;;;;;;5031835;28;19913;-83
2021/06/30 02:37:49;;;;;;;;;;;13.50;99.90;;;;;;5030748;28;19909;-83
2021/06/30 02:40:16;;;;;;;;;;;13.50;99.90;;;;;;5030456;28;20428;-83
2021/06/30 02:42:42;;;;;;;;;;;13.50;99.90;;;;;;5033146;28;19951;-82
2021/06/30 02:45:09;;;;;;;;;;;13.50;99.90;;;;;;5038659;28;19913;-83
2021/06/30 02:47:35;;;;;;;;;;;13.50;99.90;;;;;;5030475;28;19932;-83
2021/06/30 02:50:00;;;;;;;;;;;13.40;99.90;;;;;;5034008;28;20363;-83
2021/06/30 02:52:26;;;;;;;;;;;13.50;99.90;;;;;;5035171;28;19924;-83
2021/06/30 02:54:51;;;;;;;;;;;13.40;99.90;;;;;;5034084;28;20356;-83
2021/06/30 02:57:17;;;;;;;;;;;13.40;99.90;;;;;;5035405;28;19914;-83
2021/06/30 02:59:42;;;;;;;;;;;13.40;99.90;;;;;;5035374;28;19932;-83
2021/06/30 03:02:08;;;;;;;;;;;13.40;99.90;;;;;;5035011;28;20011;-83
2021/06/30 03:04:33;;;;;;;;;;;13.40;99.90;;;;;;5035156;28;19916;-82
2021/06/30 03:06:59;;;;;;;;;;;13.40;99.90;;;;;;5033898;28;19967;-83
2021/06/30 03:09:24;;;;;;;;;;;13.40;99.90;;;;;;5033952;28;20309;-83
2021/06/30 03:11:50;;;;;;;;;;;13.40;99.90;;;;;;5036022;28;19963;-83
2021/06/30 03:14:16;;;;;;;;;;;13.40;99.90;;;;;;5045497;28;20260;-83
2021/06/30 03:16:42;;;;;;;;;;;13.40;99.90;;;;;;5053934;28;20268;-82
2021/06/30 03:19:08;;;;;;;;;;;13.30;99.90;;;;;;5053682;28;19913;-82
2021/06/30 03:21:33;;;;;;;;;;;13.40;99.90;;;;;;5054535;28;20443;-83
2021/06/30 03:23:59;;;;;;;;;;;13.30;99.90;;;;;;5054852;28;19913;-83
2021/06/30 03:26:24;;;;;;;;;;;13.40;99.90;;;;;;5053335;28;19932;-83
2021/06/30 03:28:50;;;;;;;;;;;13.40;99.90;;;;;;5054710;28;19909;-83
2021/06/30 03:31:16;;;;;;;;;;;13.40;99.90;;;;;;5053064;28;20543;-83
2021/06/30 03:33:43;;;;;;;;;;;13.30;99.90;;;;;;5054629;28;19912;-83
2021/06/30 03:36:09;;;;;;;;;;;13.30;99.90;;;;;;5053321;28;19916;-83
2021/06/30 03:38:35;;;;;;;;;;;13.20;99.90;;;;;;5053161;28;19909;-83
2021/06/30 03:41:00;;;;;;;;;;;13.30;99.90;;;;;;5052974;28;19944;-83
2021/06/30 03:43:26;;;;;;;;;;;13.30;99.90;;;;;;5049227;28;19910;-83
2021/06/30 03:45:51;;;;;;;;;;;13.30;99.90;;;;;;5049887;28;19909;-83
2021/06/30 03:48:16;;;;;;;;;;;13.20;99.90;;;;;;5053025;28;19912;-83
2021/06/30 03:50:42;;;;;;;;;;;13.30;99.90;;;;;;5054441;28;20301;-83
2021/06/30 03:53:07;;;;;;;;;;;13.30;99.90;;;;;;5053189;28;19913;-83
2021/06/30 03:55:33;;;;;;;;;;;13.30;99.90;;;;;;5052862;28;19931;-82
2021/06/30 03:57:58;;;;;;;;;;;13.30;99.90;;;;;;5053121;28;19913;-82
2021/06/30 04:00:26;;;;;;;;;;;13.30;99.90;;;;;;5052488;28;19909;-83
2021/06/30 04:02:53;;;;;;;;;;;13.30;99.90;;;;;;5052691;28;19913;-82
2021/06/30 04:05:18;;;;;;;;;;;13.30;99.90;;;;;;5054049;28;19962;-83
2021/06/30 04:07:43;;;;;;;;;;;13.30;99.90;;;;;;5052661;28;19908;-83
2021/06/30 04:10:09;;;;;;;;;;;13.30;99.90;;;;;;5053834;28;19915;-83
2021/06/30 04:12:35;;;;;;;;;;;13.30;99.90;;;;;;5053764;28;19916;-83
2021/06/30 04:15:00;;;;;;;;;;;13.30;99.90;;;;;;5044249;28;19920;-83
2021/06/30 04:17:26;;;;;;;;;;;13.20;99.90;;;;;;5053861;28;19916;-83
2021/06/30 04:19:51;;;;;;;;;;;13.20;99.90;;;;;;5053813;28;19915;-83
2021/06/30 04:22:17;;;;;;;;;;;13.20;99.90;;;;;;5053487;28;19913;-83
2021/06/30 04:24:42;;;;;;;;;;;13.20;99.90;;;;;;5052310;28;19912;-83
2021/06/30 04:27:08;;;;;;;;;;;13.20;99.90;;;;;;5052319;28;19909;-83
2021/06/30 04:29:33;;;;;;;;;;;13.30;99.90;;;;;;5052352;28;19915;-82
2021/06/30 04:31:59;;;;;;;;;;;13.30;99.90;;;;;;5052195;28;20020;-83
2021/06/30 04:34:24;;;;;;;;;;;13.30;99.90;;;;;;5053398;28;20424;-85
2021/06/30 04:36:50;;;;;;;;;;;13.40;99.90;;;;;;5052255;28;19909;-83
2021/06/30 04:39:16;;;;;;;;;;;13.40;99.90;;;;;;5052043;28;19909;-83
2021/06/30 04:41:41;;;;;;;;;;;13.50;99.90;;;;;;5051704;28;19909;-83
2021/06/30 04:44:07;;;;;;;;;;;13.40;99.90;;;;;;5044908;28;19909;-83
2021/06/30 04:46:32;;;;;;;;;;;13.50;99.90;;;;;;5053165;28;19940;-82
2021/06/30 04:48:58;;;;;;;;;;;13.60;99.90;;;;;;5053139;28;20017;-82
2021/06/30 04:51:24;;;;;;;;;;;13.70;99.90;;;;;;5051558;28;19916;-83
2021/06/30 04:53:51;;;;;;;;;;;13.80;99.90;;;;;;5051726;28;19913;-83
2021/06/30 04:56:17;;;;;;;;;;;13.80;99.90;;;;;;5053182;28;19927;-83
2021/06/30 04:58:42;;;;;;;;;;;13.80;99.90;;;;;;5053006;28;20023;-83
2021/06/30 05:01:07;;;;;;;;;;;13.70;99.90;;;;;;5051638;28;19934;-83
2021/06/30 05:03:33;;;;;;;;;;;13.70;99.90;;;;;;5051606;28;20485;-83
2021/06/30 05:05:58;;;;;;;;;;;13.60;99.90;;;;;;5052958;28;19920;-82
2021/06/30 05:08:24;;;;;;;;;;;13.70;99.90;;;;;;5051742;28;19909;-83
2021/06/30 05:10:50;;;;;;;;;;;13.70;99.90;;;;;;5052542;28;19916;-83
2021/06/30 05:13:16;;;;;;;;;;;13.80;99.90;;;;;;5042714;28;19909;-83
2021/06/30 05:15:42;;;;;;;;;;;14.00;99.90;;;;;;5036206;28;20380;-83
2021/06/30 05:18:07;;;;;;;;;;;14.10;99.90;;;;;;5031632;28;20386;-83
2021/06/30 05:20:33;;;;;;;;;;;14.20;99.90;;;;;;5032493;28;20359;-82
2021/06/30 05:22:58;;;;;;;;;;;14.20;99.90;;;;;;5031315;28;20333;-83
2021/06/30 05:25:24;;;;;;;;;;;14.30;99.90;;;;;;5032614;28;19916;-83
2021/06/30 05:27:49;;;;;;;;;;;14.20;99.90;;;;;;5032674;28;19999;-83
2021/06/30 05:30:15;;;;;;;;;;;14.20;99.90;;;;;;5031070;28;20283;-82
2021/06/30 05:32:41;;;;;;;;;;;14.30;99.90;;;;;;5031360;28;19975;-83
2021/06/30 05:35:06;;;;;;;;;;;14.50;99.90;;;;;;5032592;28;20504;-83
2021/06/30 05:37:32;;;;;;;;;;;14.70;99.90;;;;;;5031420;28;19913;-83
2021/06/30 05:39:58;;;;;;;;;;;14.90;99.90;;;;;;5032515;28;19917;-83
2021/06/30 05:42:24;;;;;;;;;;;15.20;99.90;;;;;;5039670;28;19909;-83
2021/06/30 05:44:49;;;;;;;;;;;15.30;99.90;;;;;;5042806;28;20282;-83
2021/06/30 05:47:15;;;;;;;;;;;15.30;99.90;;;;;;5051219;28;19963;-83
2021/06/30 05:49:41;;;;;;;;;;;15.20;99.90;;;;;;5051171;28;19908;-83
2021/06/30 05:52:06;;;;;;;;;;;15.20;99.90;;;;;;5051195;28;19909;-83
2021/06/30 05:54:32;;;;;;;;;;;15.40;99.90;;;;;;5051144;28;19913;-82
2021/06/30 05:56:57;;;;;;;;;;;15.40;99.90;;;;;;5051083;28;19913;-83
2021/06/30 05:59:23;;;;;;;;;;;15.40;99.90;;;;;;5052294;28;19909;-83
2021/06/30 06:01:48;;;;;;;;;;;15.60;99.90;;;;;;5052024;28;19909;-83
2021/06/30 06:04:14;;;;;;;;;;;15.90;99.90;;;;;;5052245;28;19916;-83
2021/06/30 06:06:39;;;;;;;;;;;16.20;99.90;;;;;;5052225;28;19952;-83
2021/06/30 06:09:04;;;;;;;;;;;16.40;99.90;;;;;;5051762;28;19915;-83
2021/06/30 06:11:30;;;;;;;;;;;16.70;99.90;;;;;;5050516;28;19916;-83
2021/06/30 06:13:55;;;;;;;;;;;16.90;99.90;;;;;;5043761;28;19912;-83
2021/06/30 06:16:22;;;;;;;;;;;17.20;99.90;;;;;;5052186;28;19909;-83
2021/06/30 06:18:48;;;;;;;;;;;17.20;99.90;;;;;;5050807;28;19913;-83
2021/06/30 06:21:13;;;;;;;;;;;17.20;99.90;;;;;;5050936;28;19963;-83
2021/06/30 06:23:39;;;;;;;;;;;17.50;99.90;;;;;;5053729;28;19962;-83
2021/06/30 06:26:04;;;;;;;;;;;17.70;99.90;;;;;;5055998;28;19957;-83
2021/06/30 06:28:33;;;;;;;;;;;18.10;99.90;;;;;;5056062;28;19924;-83
2021/06/30 06:31:01;;;;;;;;;;;18.50;99.90;;;;;;5055731;28;20303;-83
2021/06/30 06:33:26;;;;;;;;;;;19.00;99.90;;;;;;5054782;28;19916;-83
2021/06/30 06:35:52;;;;;;;;;;;19.00;99.90;;;;;;5045337;28;19909;-83
2021/06/30 06:38:17;;;;;;;;;;;19.40;99.90;;;;;;5034598;28;20299;-83
2021/06/30 06:40:43;;;;;;;;;;;19.70;99.90;;;;;;5035365;28;20336;-84
2021/06/30 06:43:08;;;;;;;;;;;19.90;99.90;;;;;;5034628;28;20379;-85
2021/06/30 06:45:34;;;;;;;;;;;20.20;99.90;;;;;;5036727;28;19916;-84
2021/06/30 06:48:00;;;;;;;;;;;20.50;99.90;;;;;;5041809;28;20322;-84
2021/06/30 06:50:25;;;;;;;;;;;20.80;99.90;;;;;;5045206;28;19916;-83
2021/06/30 06:52:51;;;;;;;;;;;21.10;99.90;;;;;;5040972;28;19909;-83
2021/06/30 06:55:17;;;;;;;;;;;21.30;99.90;;;;;;5039302;28;20606;-82
2021/06/30 06:57:43;;;;;;;;;;;21.30;99.90;;;;;;5044633;28;19915;-82
2021/06/30 07:00:10;;;;;;;;;;;21.30;99.90;;;;;;5049367;28;19909;-82
2021/06/30 07:02:36;;;;;;;;;;;21.30;99.90;;;;;;5045604;28;19909;-83
2021/06/30 07:05:02;;;;;;;;;;;21.50;99.90;;;;;;5034974;28;19998;-82
2021/06/30 07:07:27;;;;;;;;;;;21.30;99.90;;;;;;5047505;28;20401;-83
2021/06/30 07:09:53;;;;;;;;;;;21.50;99.90;;;;;;5042204;28;19909;-82
2021/06/30 07:12:20;;;;;;;;;;;21.70;99.90;;;;;;5042490;28;19909;-83
2021/06/30 07:14:45;;;;;;;;;;;21.40;99.90;;;;;;5047827;28;19919;-83
2021/06/30 07:17:11;;;;;;;;;;;20.80;99.90;;;;;;5033199;28;20279;-83
2021/06/30 07:19:36;;;;;;;;;;;20.50;99.90;;;;;;5046399;28;20386;-82
2021/06/30 07:22:02;;;;;;;;;;;20.40;99.90;;;;;;5053204;28;19916;-83
2021/06/30 07:24:27;;;;;;;;;;;20.50;99.90;;;;;;5053473;28;19913;-81
2021/06/30 07:26:53;;;;;;;;;;;20.80;99.90;;;;;;5054588;28;19908;-81
2021/06/30 07:29:18;;;;;;;;;;;20.60;99.90;;;;;;5055802;28;20362;-82
2021/06/30 07:31:44;;;;;;;;;;;20.20;99.90;;;;;;5053107;28;19988;-81
2021/06/30 07:34:10;;;;;;;;;;;19.80;99.90;;;;;;5045366;28;19913;-82
2021/06/30 07:36:35;;;;;;;;;;;19.50;99.90;;;;;;5052977;28;19913;-82
2021/06/30 07:39:01;;;;;;;;;;;19.20;99.90;;;;;;5053390;28;19913;-82
2021/06/30 07:41:26;;;;;;;;;;;19.10;99.90;;;;;;5053213;28;19970;-82
2021/06/30 07:43:52;;;;;;;;;;;18.80;99.90;;;;;;5054008;28;19909;-82
2021/06/30 07:46:17;;;;;;;;;;;18.90;99.90;;;;;;5055340;28;19921;-82
2021/06/30 07:48:43;;;;;;;;;;;18.80;99.90;;;;;;5053316;28;20309;-83
2021/06/30 07:51:09;;;;;;;;;;;19.00;99.90;;;;;;5049598;28;21035;-82
2021/06/30 07:53:34;;;;;;;;;;;19.40;99.90;;;;;;5041310;28;19909;-82
2021/06/30 07:55:59;;;;;;;;;;;19.80;99.90;;;;;;5052157;28;19913;-83
2021/06/30 07:58:25;;;;;;;;;;;19.90;99.90;;;;;;5053043;28;19909;-83
2021/06/30 08:00:50;;;;;;;;;;;19.90;99.90;;;;;;5047307;28;20394;-82
2021/06/30 08:03:16;;;;;;;;;;;19.70;99.90;;;;;;5045797;28;19976;-82
2021/06/30 08:05:42;;;;;;;;;;;19.40;99.90;;;;;;5054227;28;19915;-83
2021/06/30 08:08:07;;;;;;;;;;;19.10;99.90;;;;;;5052811;28;19913;-83
2021/06/30 08:10:33;;;;;;;;;;;19.00;99.90;;;;;;5052598;28;20370;-83
2021/06/30 08:12:58;;;;;;;;;;;19.20;99.90;;;;;;5043879;28;19960;-82
2021/06/30 08:15:24;;;;;;;;;;;19.50;99.90;;;;;;5045134;28;19921;-83
2021/06/30 08:17:50;;;;;;;;;;;19.60;99.90;;;;;;5049109;28;19932;-82
2021/06/30 08:20:16;;;;;;;;;;;19.80;99.90;;;;;;5052536;28;20390;-82
2021/06/30 08:27:53;;;;;;;;;;;20.10;99.90;;;;;;5496784;22;19933;-81
2021/06/30 08:30:19;;;;;;;;;;;20.50;99.90;;;;;;5013776;28;19917;-83
2021/06/30 08:32:45;;;;;;;;;;;21.00;99.90;;;;;;5004390;28;19963;-83
2021/06/30 08:35:13;;;;;;;;;;;21.70;99.90;;;;;;5000649;28;19918;-83
2021/06/30 08:37:40;;;;;;;;;;;22.20;99.90;;;;;;5018457;28;19909;-82
2021/06/30 08:40:08;;;;;;;;;;;22.30;99.90;;;;;;5003467;28;20012;-84
2021/06/30 08:42:33;;;;;;;;;;;22.00;99.90;;;;;;5018028;28;19959;-83
2021/06/30 08:44:59;;;;;;;;;;;21.60;99.90;;;;;;4998842;28;19917;-83
2021/06/30 08:47:25;;;;;;;;;;;21.00;99.90;;;;;;4997458;28;19920;-83
2021/06/30 08:49:51;;;;;;;;;;;20.30;99.90;;;;;;4997431;28;20360;-83
2021/06/30 08:52:17;;;;;;;;;;;19.40;99.90;;;;;;4996627;28;19999;-82
2021/06/30 08:54:42;;;;;;;;;;;18.70;99.90;;;;;;4991815;28;19956;-82
2021/06/30 08:57:09;;;;;;;;;;;18.10;99.90;;;;;;5014363;28;19917;-83
2021/06/30 08:59:35;;;;;;;;;;;17.70;99.90;;;;;;4998559;28;20007;-83
2021/06/30 09:02:01;;;;;;;;;;;17.30;99.90;;;;;;4998121;28;20367;-83
2021/06/30 09:04:26;;;;;;;;;;;17.00;99.90;;;;;;5000158;28;19917;-82
2021/06/30 09:06:52;;;;;;;;;;;16.90;99.90;;;;;;4998687;28;19909;-82
2021/06/30 09:09:17;;;;;;;;;;;17.00;99.90;;;;;;4996578;28;19917;-83
2021/06/30 09:11:51;;;;;;;;;;;17.30;99.90;;;;;;5014975;28;19916;-82
2021/06/30 09:14:22;;;;;;;;;;;17.50;99.90;;;;;;4997146;28;19918;-83
2021/06/30 09:16:48;;;;;;;;;;;17.90;99.90;;;;;;4997903;28;19909;-83
2021/06/30 09:19:13;;;;;;;;;;;18.20;99.90;;;;;;5017393;28;19942;-83
2021/06/30 09:21:39;;;;;;;;;;;18.60;99.90;;;;;;4999153;28;20290;-83
2021/06/30 09:24:06;;;;;;;;;;;18.90;99.90;;;;;;5001910;28;19910;-83
2021/06/30 09:26:32;;;;;;;;;;;18.90;99.90;;;;;;5000282;28;19910;-83
2021/06/30 09:29:08;;;;;;;;;;;18.60;99.90;;;;;;5000663;28;19913;-82
2021/06/30 09:31:34;;;;;;;;;;;18.20;99.90;;;;;;5014406;28;19916;-83
2021/06/30 09:34:01;;;;;;;;;;;17.70;99.90;;;;;;4996710;28;19957;-83
2021/06/30 09:36:30;;;;;;;;;;;17.40;99.90;;;;;;4998088;28;19967;-83
2021/06/30 09:39:05;;;;;;;;;;;17.30;99.90;;;;;;5014312;28;20422;-83
2021/06/30 09:41:31;;;;;;;;;;;17.20;99.90;;;;;;4995273;28;19917;-84
2021/06/30 09:44:00;;;;;;;;;;;17.30;99.90;;;;;;4995450;28;19910;-83
2021/06/30 09:46:25;;;;;;;;;;;17.40;99.90;;;;;;5013476;28;19910;-82
2021/06/30 09:48:55;;;;;;;;;;;17.80;99.90;;;;;;4997048;28;19917;-83
2021/06/30 09:51:21;;;;;;;;;;;18.20;99.90;;;;;;4996404;28;19910;-81
2021/06/30 09:53:47;;;;;;;;;;;18.50;99.90;;;;;;4998561;28;19944;-81
2021/06/30 09:56:14;;;;;;;;;;;18.70;99.90;;;;;;4997935;28;19909;-83
2021/06/30 09:58:39;;;;;;;;;;;19.00;99.90;;;;;;5006899;28;19910;-83
2021/06/30 10:01:15;;;;;;;;;;;19.60;99.90;;;;;;5010514;28;19955;-81
2021/06/30 10:03:41;;;;;;;;;;;20.50;99.90;;;;;;5012093;28;19960;-83
2021/06/30 10:06:26;;;;;;;;;;;20.90;99.90;;;;;;5011844;28;19910;-83
2021/06/30 10:08:52;;;;;;;;;;;21.10;99.90;;;;;;5009987;28;19909;-83
2021/06/30 10:11:18;;;;;;;;;;;21.10;99.90;;;;;;5012183;28;19928;-82
2021/06/30 10:13:43;;;;;;;;;;;21.00;99.90;;;;;;5012618;28;20072;-82
2021/06/30 10:16:09;;;;;;;;;;;20.80;99.90;;;;;;5009410;28;19996;-83
2021/06/30 10:18:34;;;;;;;;;;;20.70;99.90;;;;;;5007837;28;19910;-83
2021/06/30 10:21:00;;;;;;;;;;;20.80;99.90;;;;;;5009673;28;19964;-82
2021/06/30 10:23:29;;;;;;;;;;;20.80;99.90;;;;;;5025712;28;19916;-82
2021/06/30 10:25:55;;;;;;;;;;;20.90;99.90;;;;;;5005551;28;20001;-83
2021/06/30 10:28:21;;;;;;;;;;;21.00;99.90;;;;;;5007247;28;19909;-82
2021/06/30 10:30:48;;;;;;;;;;;20.90;99.90;;;;;;5006825;28;19917;-83
2021/06/30 10:33:27;;;;;;;;;;;20.90;99.90;;;;;;5009063;28;19916;-83
2021/06/30 10:35:53;;;;;;;;;;;20.90;99.90;;;;;;5010128;28;19924;-83
2021/06/30 10:38:18;;;;;;;;;;;20.70;99.90;;;;;;5010848;28;19910;-83
2021/06/30 10:40:44;;;;;;;;;;;20.40;99.90;;;;;;5008608;28;19920;-82
2021/06/30 10:43:13;;;;;;;;;;;19.80;99.90;;;;;;5009064;28;19909;-83
2021/06/30 10:45:42;;;;;;;;;;;19.50;99.90;;;;;;5009856;28;19916;-83
2021/06/30 10:48:11;;;;;;;;;;;19.30;99.90;;;;;;5004146;28;19913;-83
2021/06/30 10:50:42;;;;;;;;;;;19.00;99.90;;;;;;5001662;28;19910;-83
2021/06/30 10:53:11;;;;;;;;;;;18.70;99.90;;;;;;5000588;28;19914;-83
2021/06/30 10:55:40;;;;;;;;;;;18.50;99.90;;;;;;5001066;28;20004;-83
2021/06/30 10:58:15;;;;;;;;;;;18.50;99.90;;;;;;5019029;28;19910;-83
2021/06/30 11:00:52;;;;;;;;;;;18.50;99.90;;;;;;5002049;28;19910;-83
2021/06/30 11:03:22;;;;;;;;;;;18.60;99.90;;;;;;5001515;28;20393;-83
2021/06/30 11:05:48;;;;;;;;;;;19.00;99.90;;;;;;5019743;28;19952;-83
2021/06/30 11:08:32;;;;;;;;;;;19.40;99.90;;;;;;5001710;28;19909;-82
2021/06/30 11:10:57;;;;;;;;;;;19.70;99.90;;;;;;5003999;28;19913;-82
2021/06/30 11:13:43;;;;;;;;;;;19.80;99.90;;;;;;5009129;28;19909;-83
2021/06/30 11:16:08;;;;;;;;;;;20.20;99.90;;;;;;4998382;28;20478;-83
2021/06/30 11:18:34;;;;;;;;;;;20.90;99.90;;;;;;5011611;28;19909;-83
2021/06/30 11:21:03;;;;;;;;;;;21.70;99.90;;;;;;5008751;28;19941;-83
2021/06/30 11:23:29;;;;;;;;;;;22.40;99.90;;;;;;5022532;28;19974;-82
2021/06/30 11:26:15;;;;;;;;;;;22.70;99.90;;;;;;5013564;28;19909;-83
2021/06/30 11:28:40;;;;;;;;;;;22.50;99.90;;;;;;5006882;28;19909;-84
2021/06/30 11:31:24;;;;;;;;;;;21.40;99.90;;;;;;5004372;28;19924;-83
2021/06/30 11:34:02;;;;;;;;;;;20.40;99.90;;;;;;5004974;28;19967;-83
2021/06/30 11:36:27;;;;;;;;;;;19.60;99.90;;;;;;5017623;28;20291;-82
2021/06/30 11:38:53;;;;;;;;;;;18.90;99.90;;;;;;4997871;28;19910;-84
2021/06/30 11:41:24;;;;;;;;;;;18.50;99.90;;;;;;5013499;28;19916;-84
2021/06/30 11:43:50;;;;;;;;;;;18.30;99.90;;;;;;5013195;28;19913;-83
2021/06/30 11:46:21;;;;;;;;;;;18.40;99.90;;;;;;5016717;28;19910;-81
2021/06/30 11:48:51;;;;;;;;;;;18.70;99.90;;;;;;5016137;28;19910;-82
2021/06/30 11:51:16;;;;;;;;;;;18.90;99.90;;;;;;4999712;28;19909;-84
2021/06/30 11:53:44;;;;;;;;;;;19.00;99.90;;;;;;5015396;28;20357;-83
2021/06/30 11:56:11;;;;;;;;;;;18.80;99.90;;;;;;4997886;28;19909;-84
2021/06/30 11:58:49;;;;;;;;;;;18.70;99.90;;;;;;5002331;28;19917;-83
2021/06/30 12:01:18;;;;;;;;;;;18.70;99.90;;;;;;4999798;28;19910;-83
2021/06/30 12:03:44;;;;;;;;;;;18.70;99.90;;;;;;5000880;28;19948;-84
2021/06/30 12:06:23;;;;;;;;;;;19.10;99.90;;;;;;4998859;28;20020;-85
2021/06/30 12:09:09;;;;;;;;;;;19.70;99.90;;;;;;4999195;28;20013;-83
2021/06/30 12:11:35;;;;;;;;;;;20.30;99.90;;;;;;4984881;28;19916;-83
2021/06/30 12:14:02;;;;;;;;;;;20.60;99.90;;;;;;5001565;28;19957;-84
2021/06/30 12:16:57;;;;;;;;;;;20.60;99.90;;;;;;4998498;28;19910;-84
2021/06/30 12:19:36;;;;;;;;;;;20.60;99.90;;;;;;4987199;28;19937;-82
2021/06/30 12:22:15;;;;;;;;;;;20.50;99.90;;;;;;5001100;28;19910;-83
2021/06/30 12:24:41;;;;;;;;;;;20.40;99.90;;;;;;5018558;28;20339;-83
2021/06/30 12:27:07;;;;;;;;;;;20.30;99.90;;;;;;4999424;28;19932;-82
2021/06/30 12:29:34;;;;;;;;;;;20.20;99.90;;;;;;5017777;28;19910;-83
2021/06/30 12:32:03;;;;;;;;;;;20.00;99.90;;;;;;5000015;28;20298;-83
2021/06/30 12:34:29;;;;;;;;;;;19.70;99.90;;;;;;5000024;28;19956;-82
2021/06/30 12:36:54;;;;;;;;;;;19.50;99.90;;;;;;4998901;28;20257;-83
2021/06/30 12:39:21;;;;;;;;;;;19.40;99.90;;;;;;4997858;28;19910;-84
2021/06/30 12:41:53;;;;;;;;;;;19.50;99.90;;;;;;4995821;28;19910;-81
2021/06/30 12:44:18;;;;;;;;;;;19.70;99.90;;;;;;4999863;28;20406;-84
2021/06/30 12:46:44;;;;;;;;;;;19.80;99.90;;;;;;5019410;28;19909;-83
2021/06/30 12:49:13;;;;;;;;;;;20.10;99.90;;;;;;5000931;28;19910;-84
2021/06/30 12:51:39;;;;;;;;;;;20.90;99.90;;;;;;5019546;28;19969;-82
2021/06/30 12:54:04;;;;;;;;;;;21.90;99.90;;;;;;5018911;28;20003;-83
2021/06/30 12:56:35;;;;;;;;;;;22.60;99.90;;;;;;5000106;28;19916;-83
2021/06/30 12:59:10;;;;;;;;;;;22.60;99.90;;;;;;4999230;28;19910;-84
2021/06/30 13:01:36;;;;;;;;;;;22.50;99.90;;;;;;4998113;28;20008;-84
2021/06/30 13:04:03;;;;;;;;;;;22.40;99.90;;;;;;5019866;28;19945;-84
2021/06/30 13:06:34;;;;;;;;;;;22.30;99.90;;;;;;5016007;28;20346;-83
2021/06/30 13:09:05;;;;;;;;;;;22.00;99.90;;;;;;4999611;28;19910;-83
2021/06/30 13:11:44;;;;;;;;;;;21.70;99.90;;;;;;4997391;28;19910;-84
2021/06/30 13:14:14;;;;;;;;;;;21.40;99.90;;;;;;4998703;28;19920;-83
2021/06/30 13:16:49;;;;;;;;;;;21.30;99.90;;;;;;5016358;28;19916;-82
2021/06/30 13:19:20;;;;;;;;;;;21.00;99.90;;;;;;4998597;28;20387;-83
2021/06/30 13:21:49;;;;;;;;;;;20.80;99.90;;;;;;5015857;28;19916;-83
2021/06/30 13:24:20;;;;;;;;;;;20.60;99.90;;;;;;5014081;28;19960;-83
2021/06/30 13:35:18;;;;;;;;;;;20.20;99.90;;;;;;5015255;28;19967;-83
2021/06/30 13:37:43;;;;;;;;;;;20.20;99.90;;;;;;5015783;28;19910;-84
2021/06/30 13:40:09;;;;;;;;;;;20.00;99.90;;;;;;5000884;28;19909;-83
2021/06/30 13:42:35;;;;;;;;;;;19.90;99.90;;;;;;5000548;28;19910;-83
2021/06/30 13:45:00;;;;;;;;;;;19.90;99.90;;;;;;4999551;28;20257;-82
2021/06/30 13:47:26;;;;;;;;;;;19.90;99.90;;;;;;5015033;28;19961;-84
2021/06/30 13:49:51;;;;;;;;;;;19.90;99.90;;;;;;4998170;28;19916;-83
2021/06/30 13:52:17;;;;;;;;;;;19.80;99.90;;;;;;5000123;28;20478;-83
2021/06/30 13:54:42;;;;;;;;;;;19.80;99.90;;;;;;5017645;28;19914;-83
2021/06/30 13:57:08;;;;;;;;;;;19.80;99.90;;;;;;5000140;28;20591;-83
2021/06/30 13:59:33;;;;;;;;;;;19.90;99.90;;;;;;4999766;28;20311;-83
2021/06/30 14:01:59;;;;;;;;;;;20.00;99.90;;;;;;4999694;28;19917;-82
2021/06/30 14:04:24;;;;;;;;;;;20.00;99.90;;;;;;4999425;28;19972;-84
2021/06/30 14:06:50;;;;;;;;;;;20.20;99.90;;;;;;4997278;28;19910;-82
2021/06/30 14:09:15;;;;;;;;;;;20.30;99.90;;;;;;5017154;28;20008;-83
2021/06/30 14:11:41;;;;;;;;;;;20.20;99.90;;;;;;5016823;28;19910;-83
2021/06/30 14:14:06;;;;;;;;;;;20.20;99.90;;;;;;4998370;28;19913;-83
2021/06/30 14:16:32;;;;;;;;;;;19.90;99.90;;;;;;4997240;28;19909;-83
2021/06/30 14:18:57;;;;;;;;;;;19.90;99.90;;;;;;5002089;28;19918;-83
2021/06/30 14:21:23;;;;;;;;;;;19.90;99.90;;;;;;4999761;28;19910;-84
2021/06/30 14:23:48;;;;;;;;;;;20.00;99.90;;;;;;4999692;28;19917;-83
2021/06/30 14:26:14;;;;;;;;;;;20.10;99.90;;;;;;4999337;28;20279;-83
2021/06/30 14:28:39;;;;;;;;;;;20.30;99.90;;;;;;4997719;28;19916;-82